Flight Track Log - Related Links

Times and Time Zones

All times are in EDT time to prevent confusion due to time zone crossing. See the JEX3057 flight status page for this flight to view local times or setup timezone preferences in your user account.

Time Position Orientation Groundspeed Altitude Reporting Facility
EDT Latitude Longitude Course Direction KTS MPH feet Rate Location/Type
Mon 07:00:00 AM 35.7047 140.0430 258° West  Level Estimated
Mon 07:01:00 AM 35.6844 139.9287 258° West  Level Estimated
Mon 07:02:00 AM 35.6641 139.8145 258° West  Level Estimated
Mon 07:03:00 AM 35.6437 139.7002 258° West  Level Estimated
Mon 07:04:00 AM 35.6231 139.5861 258° West  Level Estimated
Mon 07:05:00 AM 35.6025 139.4720 257° West  Level Estimated
Mon 07:06:00 AM 35.5817 139.3579 257° West  Level Estimated
Mon 07:07:00 AM 35.5608 139.2440 257° West  Level Estimated
Mon 07:08:00 AM 35.5398 139.1300 257° West  Level Estimated
Mon 07:09:00 AM 35.5187 139.0162 257° West  Level Estimated
Mon 07:10:00 AM 35.4975 138.9024 257° West  Level Estimated
Mon 07:11:00 AM 35.4762 138.7886 257° West  Level Estimated
Mon 07:12:00 AM 35.4548 138.6750 257° West  Level Estimated
Mon 07:13:00 AM 35.4333 138.5613 257° West  Level Estimated
Mon 07:14:00 AM 35.4117 138.4478 257° West  Level Estimated
Mon 07:15:00 AM 35.3899 138.3343 257° West  Level Estimated
Mon 07:16:00 AM 35.3681 138.2208 257° West  Level Estimated
Mon 07:17:00 AM 35.3462 138.1075 257° West  Level Estimated
Mon 07:18:00 AM 35.3241 137.9942 257° West  Level Estimated
Mon 07:19:00 AM 35.3020 137.8809 257° West  Level Estimated
Mon 07:20:00 AM 35.2797 137.7677 256° West  Level Estimated
Mon 07:21:00 AM 35.2574 137.6546 256° West  Level Estimated
Mon 07:22:00 AM 35.2349 137.5415 256° West  Level Estimated
Mon 07:23:00 AM 35.2123 137.4285 256° West  Level Estimated
Mon 07:24:00 AM 35.1896 137.3156 256° West  Level Estimated
Mon 07:25:00 AM 35.1669 137.2027 256° West  Level Estimated
Mon 07:26:00 AM 35.1440 137.0899 256° West  Level Estimated
Mon 07:27:00 AM 35.1210 136.9772 256° West  Level Estimated
Mon 07:28:00 AM 35.0979 136.8645 256° West  Level Estimated
Mon 07:29:00 AM 35.0747 136.7519 256° West  Level Estimated
Mon 07:30:00 AM 35.0514 136.6393 256° West  Level Estimated
Mon 07:31:00 AM 35.0266 136.5201 256° West  Level Estimated
Mon 07:32:00 AM 35.0016 136.4010 256° West  Level Estimated
Mon 07:33:00 AM 34.9766 136.2820 256° West  Level Estimated
Mon 07:34:00 AM 34.9514 136.1630 256° West  Level Estimated
Mon 07:35:00 AM 34.9262 136.0441 255° West  Level Estimated
Mon 07:36:00 AM 34.9008 135.9253 255° West  Level Estimated
Mon 07:37:00 AM 34.8753 135.8065 255° West  Level Estimated
Mon 07:38:00 AM 34.8497 135.6879 255° West  Level Estimated
Mon 07:39:00 AM 34.8239 135.5693 255° West  Level Estimated
Mon 07:40:00 AM 34.7981 135.4507 255° West  Level Estimated
Mon 07:41:00 AM 34.7721 135.3323 255° West  Level Estimated
Mon 07:42:00 AM 34.7460 135.2139 255° West  Level Estimated
Mon 07:43:00 AM 34.7198 135.0956 255° West  Level Estimated
Mon 07:44:00 AM 34.6935 134.9774 255° West  Level Estimated
Mon 07:45:00 AM 34.6668 134.8578 255° West  Level Estimated
Mon 07:46:00 AM 34.6399 134.7383 255° West  Level Estimated
Mon 07:47:00 AM 34.6130 134.6189 255° West  Level Estimated
Mon 07:48:00 AM 34.5859 134.4996 255° West  Level Estimated
Mon 07:49:00 AM 34.5587 134.3803 255° West  Level Estimated
Mon 07:50:00 AM 34.5314 134.2611 254° West  Level Estimated
Mon 07:51:00 AM 34.5039 134.1420 254° West  Level Estimated
Mon 07:52:00 AM 34.4764 134.0230 254° West  Level Estimated
Mon 07:53:00 AM 34.4487 133.9040 254° West  Level Estimated
Mon 07:54:00 AM 34.4209 133.7852 254° West  Level Estimated
Mon 07:55:00 AM 34.3930 133.6664 254° West  Level Estimated
Mon 07:56:00 AM 34.3653 133.5491 254° West  Level Estimated
Mon 07:57:00 AM 34.3376 133.4319 254° West  Level Estimated
Mon 07:58:00 AM 34.3097 133.3147 254° West  Level Estimated
Mon 07:59:00 AM 34.2816 133.1976 254° West  Level Estimated
Mon 08:00:00 AM 34.2535 133.0806 254° West  Level Estimated
Mon 08:01:00 AM 34.2253 132.9637 254° West  Level Estimated
Mon 08:02:00 AM 34.1969 132.8469 254° West  Level Estimated
Mon 08:03:00 AM 34.1685 132.7302 254° West  Level Estimated
Mon 08:04:00 AM 34.1399 132.6135 254° West  Level Estimated
Mon 08:05:00 AM 34.1112 132.4969 253° West  Level Estimated
Mon 08:06:00 AM 34.0825 132.3804 253° West  Level Estimated
Mon 08:07:00 AM 34.0536 132.2639 253° West  Level Estimated
Mon 08:08:00 AM 34.0245 132.1476 253° West  Level Estimated
Mon 08:09:00 AM 33.9954 132.0313 253° West  Level Estimated
Mon 08:10:00 AM 33.9662 131.9151 253° West  Level Estimated
Mon 08:11:00 AM 33.9369 131.7990 253° West  Level Estimated
Mon 08:12:00 AM 33.9074 131.6830 253° West  Level Estimated
Mon 08:13:00 AM 33.8779 131.5670 253° West  Level Estimated
Mon 08:14:00 AM 33.8482 131.4511 253° West  Level Estimated
Mon 08:15:00 AM 33.8185 131.3353 253° West  Level Estimated
Mon 08:16:00 AM 33.7886 131.2196 253° West  Level Estimated
Mon 08:17:00 AM 33.7586 131.1040 253° West  Level Estimated
Mon 08:18:00 AM 33.7285 130.9884 253° West  Level Estimated
Mon 08:19:00 AM 33.6983 130.8730 253° West  Level Estimated
Mon 08:20:00 AM 33.6680 130.7576 253° West  Level Estimated
Mon 08:21:00 AM 33.6376 130.6423 252° West  Level Estimated
Mon 08:22:00 AM 33.6071 130.5270 252° West  Level Estimated
Mon 08:23:00 AM 33.5866 130.4502 252° West  Level Estimated
Mon 08:24:00 AM 33.5866 130.4502 248° West  Level Estimated
Mon 08:25:00 AM 33.5866 130.4502 248° West  Level Estimated
Mon 08:26:00 AM 33.5866 130.4502 248° West  Level Estimated
Mon 08:27:00 AM 33.5866 130.4502 248° West  Level Estimated
Mon 08:28:00 AM 33.5866 130.4502 248° West  Level Estimated
Mon 08:29:00 AM 33.5866 130.4502 248° West  Level Estimated
Mon 08:30:00 AM 33.5866 130.4502 248° West  Level Estimated
Mon 08:31:00 AM 33.5866 130.4502 248° West  Level Estimated
Mon 08:32:00 AM 33.5866 130.4502 248° West  Level Estimated

Login

Don't have an account? Register now (free) for customized features, flight alerts, and more!